createdAt,value
2019-05-22T00:00:47.085Z,12.50
2019-05-22T00:03:18.516Z,12.50
2019-05-22T00:05:46.251Z,12.50
2019-05-22T00:08:20.767Z,12.40
2019-05-22T00:10:49.113Z,12.40
2019-05-22T00:13:18.550Z,12.40
2019-05-22T00:15:53.102Z,12.40
2019-05-22T00:18:27.255Z,12.40
2019-05-22T00:20:53.982Z,12.40
2019-05-22T00:23:22.622Z,12.40
2019-05-22T00:25:57.465Z,12.40
2019-05-22T00:28:30.756Z,12.40
2019-05-22T00:31:05.506Z,12.30
2019-05-22T00:33:32.352Z,12.30
2019-05-22T00:36:12.461Z,12.40
2019-05-22T00:38:41.218Z,12.30
2019-05-22T00:41:09.645Z,12.30
2019-05-22T00:43:50.802Z,12.30
2019-05-22T00:46:25.234Z,12.30
2019-05-22T00:49:00.017Z,12.20
2019-05-22T00:51:28.474Z,12.20
2019-05-22T00:54:09.150Z,12.20
2019-05-22T00:56:40.339Z,12.20
2019-05-22T00:59:38.539Z,12.20
2019-05-22T01:02:13.470Z,12.10
2019-05-22T01:04:47.194Z,12.10
2019-05-22T01:07:16.702Z,12.10
2019-05-22T01:09:43.834Z,12.10
2019-05-22T01:12:22.408Z,12.10
2019-05-22T01:14:49.933Z,12.10
2019-05-22T01:17:19.154Z,12.10
2019-05-22T01:19:53.646Z,12.10
2019-05-22T01:22:20.376Z,12.10
2019-05-22T01:24:50.413Z,12.10
2019-05-22T01:27:23.828Z,12.10
2019-05-22T01:29:51.159Z,12.10
2019-05-22T01:32:37.986Z,12.00
2019-05-22T01:35:13.464Z,12.10
2019-05-22T01:37:48.587Z,12.00
2019-05-22T01:40:26.846Z,12.10
2019-05-22T01:43:02.152Z,12.10
2019-05-22T01:45:28.880Z,12.10
2019-05-22T01:48:02.764Z,12.10
2019-05-22T01:50:46.966Z,12.10
2019-05-22T01:53:15.396Z,12.00
2019-05-22T01:55:57.578Z,12.10
2019-05-22T01:58:31.267Z,12.10
2019-05-22T02:01:33.030Z,12.10
2019-05-22T02:04:07.231Z,12.10
2019-05-22T02:06:41.757Z,12.10
2019-05-22T02:09:30.228Z,12.10
2019-05-22T02:12:12.319Z,12.10
2019-05-22T02:14:50.483Z,12.10
2019-05-22T02:17:20.797Z,12.00
2019-05-22T02:19:48.431Z,12.00
2019-05-22T02:22:22.919Z,12.00
2019-05-22T02:24:51.331Z,12.00
2019-05-22T02:27:19.208Z,12.10
2019-05-22T02:30:00.370Z,12.10
2019-05-22T02:32:28.997Z,12.10
2019-05-22T02:34:56.128Z,12.10
2019-05-22T02:37:30.564Z,12.10
2019-05-22T02:39:57.514Z,12.10
2019-05-22T02:42:32.840Z,12.20
2019-05-22T02:45:00.063Z,12.20
2019-05-22T02:47:35.231Z,12.20
2019-05-22T02:50:04.620Z,12.20
2019-05-22T02:52:31.266Z,12.20
2019-05-22T02:55:04.489Z,12.30
2019-05-22T02:57:31.118Z,12.30
2019-05-22T02:59:58.148Z,12.30
2019-05-22T03:02:32.066Z,12.30
2019-05-22T03:05:19.179Z,12.40
2019-05-22T03:07:46.506Z,12.40
2019-05-22T03:10:29.576Z,12.40
2019-05-22T03:12:56.198Z,12.40
2019-05-22T03:15:29.987Z,12.40
2019-05-22T03:17:58.929Z,12.50
2019-05-22T03:20:27.093Z,12.50
2019-05-22T03:23:07.148Z,12.50
2019-05-22T03:25:41.430Z,12.50
2019-05-22T03:28:09.260Z,12.60
2019-05-22T03:30:39.437Z,12.60
2019-05-22T03:33:15.828Z,12.60
2019-05-22T03:35:51.880Z,12.60
2019-05-22T03:38:26.359Z,12.60
2019-05-22T03:40:53.178Z,12.60
2019-05-22T03:43:34.722Z,12.60
2019-05-22T03:46:11.052Z,12.70
2019-05-22T03:48:44.919Z,12.70
2019-05-22T03:51:13.938Z,12.70
2019-05-22T03:53:41.063Z,12.70
2019-05-22T03:56:14.355Z,12.70
2019-05-22T03:58:41.584Z,12.70
2019-05-22T04:01:08.422Z,12.70
2019-05-22T04:03:41.591Z,12.70
2019-05-22T04:06:09.629Z,12.70
2019-05-22T04:08:43.675Z,12.80
2019-05-22T04:11:18.283Z,12.80
2019-05-22T04:13:51.767Z,12.70
2019-05-22T04:16:24.235Z,12.80
2019-05-22T04:18:59.870Z,12.70
2019-05-22T04:21:34.971Z,12.80
2019-05-22T04:24:09.079Z,12.80
2019-05-22T04:26:42.007Z,12.80
2019-05-22T04:29:09.141Z,12.80
2019-05-22T04:32:01.416Z,12.80
2019-05-22T04:34:28.452Z,12.80
2019-05-22T04:36:55.087Z,12.80
2019-05-22T04:39:31.580Z,12.80
2019-05-22T04:42:00.312Z,12.80
2019-05-22T04:44:27.432Z,12.80
2019-05-22T04:47:00.637Z,12.80
2019-05-22T04:49:33.514Z,12.80
2019-05-22T04:52:00.143Z,12.90
2019-05-22T04:54:32.979Z,12.90
2019-05-22T04:56:59.701Z,12.90
2019-05-22T04:59:26.337Z,12.90
2019-05-22T05:01:59.905Z,13.00
2019-05-22T05:04:33.422Z,13.00
2019-05-22T05:07:14.414Z,13.00
2019-05-22T05:09:41.036Z,13.00
2019-05-22T05:12:08.874Z,13.10
2019-05-22T05:14:41.846Z,13.10
2019-05-22T05:17:08.879Z,13.10
2019-05-22T05:19:42.878Z,13.10
2019-05-22T05:22:19.109Z,13.10
2019-05-22T05:24:55.427Z,13.20
2019-05-22T05:27:20.644Z,13.20
2019-05-22T05:29:53.334Z,13.20
2019-05-22T05:32:26.584Z,13.20
2019-05-22T05:35:02.219Z,13.20
2019-05-22T05:37:29.171Z,13.20
2019-05-22T05:40:12.746Z,13.20
2019-05-22T05:42:39.482Z,13.20
2019-05-22T05:45:15.859Z,13.20
2019-05-22T05:47:42.590Z,13.20
2019-05-22T05:50:17.854Z,13.20
2019-05-22T05:52:45.486Z,13.20
2019-05-22T05:55:19.118Z,13.20
2019-05-22T05:57:52.321Z,13.20
2019-05-22T06:00:33.652Z,13.20
2019-05-22T06:03:21.965Z,13.20
2019-05-22T06:06:01.570Z,13.20
2019-05-22T06:08:28.514Z,13.20
2019-05-22T06:11:18.743Z,13.10
2019-05-22T06:13:46.775Z,13.10
2019-05-22T06:16:26.405Z,13.10
2019-05-22T06:18:56.901Z,13.10
2019-05-22T06:21:28.602Z,13.10
2019-05-22T06:24:02.590Z,13.10
2019-05-22T06:26:56.255Z,13.10
2019-05-22T06:29:28.134Z,13.10
2019-05-22T06:32:09.387Z,13.10
2019-05-22T06:34:36.632Z,13.10
2019-05-22T06:37:42.867Z,13.00
2019-05-22T06:40:11.288Z,13.00
2019-05-22T06:42:41.115Z,13.00
2019-05-22T06:45:14.994Z,13.00
2019-05-22T06:47:42.063Z,12.90
2019-05-22T06:50:21.341Z,12.90
2019-05-22T06:52:48.140Z,12.90
2019-05-22T06:55:21.545Z,12.90
2019-05-22T06:57:48.290Z,12.90
2019-05-22T07:00:23.292Z,12.80
2019-05-22T07:02:56.541Z,12.80
2019-05-22T07:05:43.835Z,12.80
2019-05-22T07:08:11.464Z,12.80
2019-05-22T07:10:42.642Z,12.80
2019-05-22T07:13:16.323Z,12.90
2019-05-22T07:15:43.388Z,12.90
2019-05-22T07:18:18.355Z,12.90
2019-05-22T07:20:46.949Z,13.00
2019-05-22T07:23:31.524Z,13.00
2019-05-22T07:26:05.483Z,13.00
2019-05-22T07:28:32.837Z,13.10
2019-05-22T07:31:12.626Z,13.10
2019-05-22T07:33:39.856Z,13.10
2019-05-22T07:36:10.935Z,13.20
2019-05-22T07:38:42.356Z,13.20
2019-05-22T07:41:16.542Z,13.30
2019-05-22T07:43:43.136Z,13.40
2019-05-22T07:46:30.834Z,13.50
2019-05-22T07:48:52.787Z,13.50
2019-05-22T07:51:28.553Z,13.60
2019-05-22T07:54:02.310Z,13.60
2019-05-22T07:56:36.963Z,13.70
2019-05-22T07:59:03.823Z,13.60
2019-05-22T08:01:39.185Z,13.70
2019-05-22T08:07:16.816Z,13.70
2019-05-22T08:09:44.027Z,13.70
2019-05-22T08:12:12.832Z,13.80
2019-05-22T08:14:46.286Z,13.80
2019-05-22T08:17:22.527Z,13.90
2019-05-22T08:19:55.647Z,13.90
2019-05-22T08:22:30.260Z,14.00
2019-05-22T08:25:06.100Z,14.00
2019-05-22T08:27:50.210Z,14.10
2019-05-22T08:30:19.485Z,14.20
2019-05-22T08:32:48.435Z,14.30
2019-05-22T08:35:24.950Z,14.40
2019-05-22T08:37:51.823Z,14.60
2019-05-22T08:40:27.852Z,14.70
2019-05-22T08:43:04.046Z,14.80
2019-05-22T08:45:43.842Z,14.90
2019-05-22T08:48:21.530Z,15.00
2019-05-22T08:50:54.842Z,15.00
2019-05-22T08:56:15.478Z,15.20
2019-05-22T09:04:57.382Z,15.40
2019-05-22T09:10:47.575Z,15.60
2019-05-22T09:28:52.937Z,16.00
2019-05-22T09:31:19.269Z,16.10
2019-05-22T09:36:20.919Z,16.20
2019-05-22T09:42:35.821Z,16.30
2019-05-22T09:51:47.766Z,17.10
2019-05-22T09:58:08.619Z,18.30
2019-05-22T10:10:23.901Z,20.80
2019-05-22T10:13:07.777Z,21.20
2019-05-22T10:15:36.369Z,21.40
2019-05-22T10:18:13.315Z,21.60
2019-05-22T10:27:08.796Z,22.80
2019-05-22T10:42:03.896Z,24.40
2019-05-22T10:47:25.437Z,25.40
2019-05-22T10:49:52.419Z,25.50
2019-05-22T10:52:25.497Z,25.30
2019-05-22T10:54:55.819Z,25.10
2019-05-22T10:57:27.566Z,24.70
2019-05-22T11:00:15.836Z,24.30
2019-05-22T11:02:42.575Z,24.00
2019-05-22T11:05:09.474Z,23.80
2019-05-22T11:07:42.399Z,23.60
2019-05-22T11:10:16.796Z,23.40
2019-05-22T11:12:50.800Z,23.30
2019-05-22T11:15:47.475Z,23.10
2019-05-22T11:18:00.916Z,23.00
2019-05-22T11:20:35.240Z,22.80
2019-05-22T11:23:09.187Z,22.80
2019-05-22T11:25:37.851Z,22.70
2019-05-22T11:28:22.889Z,22.60
2019-05-22T11:33:55.503Z,22.50
2019-05-22T11:36:44.767Z,22.60
2019-05-22T11:39:13.235Z,22.90
2019-05-22T11:44:26.524Z,23.40
2019-05-22T11:50:23.300Z,23.60
2019-05-22T11:53:22.007Z,24.00
2019-05-22T11:56:18.773Z,24.50
2019-05-22T11:58:45.392Z,24.90
2019-05-22T12:01:19.161Z,25.10
2019-05-22T12:03:47.965Z,25.00
2019-05-22T12:06:27.463Z,24.80
2019-05-22T12:08:54.395Z,24.50
2019-05-22T12:11:32.837Z,24.30
2019-05-22T12:14:08.149Z,24.00
2019-05-22T12:16:35.795Z,23.70
2019-05-22T12:19:09.623Z,23.40
2019-05-22T12:21:36.864Z,23.20
2019-05-22T12:24:03.528Z,23.10
2019-05-22T12:26:37.000Z,22.90
2019-05-22T12:29:10.260Z,22.70
2019-05-22T12:31:43.679Z,22.50
2019-05-22T12:34:17.375Z,22.30
2019-05-22T12:36:51.573Z,22.30
2019-05-22T12:39:27.897Z,22.70
2019-05-22T12:42:01.088Z,23.00
2019-05-22T12:44:27.817Z,23.40
2019-05-22T12:47:01.551Z,23.90
2019-05-22T12:49:35.922Z,24.30
2019-05-22T12:52:10.959Z,24.90
2019-05-22T12:54:48.287Z,25.50
2019-05-22T12:57:19.227Z,26.00
2019-05-22T12:59:46.136Z,26.20
2019-05-22T13:02:22.330Z,26.30
2019-05-22T13:04:56.449Z,26.30
2019-05-22T13:07:24.304Z,26.50
2019-05-22T13:09:58.798Z,26.80
2019-05-22T13:12:32.131Z,27.10
2019-05-22T13:15:09.178Z,27.50
2019-05-22T13:17:27.033Z,27.70
2019-05-22T13:20:00.571Z,28.00
2019-05-22T13:22:36.758Z,28.20
2019-05-22T13:25:07.968Z,28.40
2019-05-22T13:27:42.851Z,28.30
2019-05-22T13:30:11.514Z,28.20
2019-05-22T13:32:52.366Z,28.10
2019-05-22T13:35:25.804Z,27.80
2019-05-22T13:38:06.874Z,27.50
2019-05-22T13:40:40.968Z,27.20
2019-05-22T13:43:07.607Z,26.80
2019-05-22T13:45:41.190Z,26.50
2019-05-22T13:48:21.395Z,26.20
2019-05-22T13:50:48.340Z,26.00
2019-05-22T13:53:23.747Z,25.80
2019-05-22T13:55:51.367Z,25.70
2019-05-22T13:58:26.194Z,25.40
2019-05-22T14:00:59.543Z,25.20
2019-05-22T14:03:26.670Z,25.00
2019-05-22T14:05:55.211Z,24.70
2019-05-22T14:08:29.014Z,24.50
2019-05-22T14:11:02.452Z,24.20
2019-05-22T14:13:35.592Z,24.10
2019-05-22T14:16:02.333Z,23.90
2019-05-22T14:18:28.996Z,23.80
2019-05-22T14:21:02.480Z,23.70
2019-05-22T14:23:29.269Z,23.50
2019-05-22T14:25:56.011Z,23.50
2019-05-22T14:28:32.117Z,23.30
2019-05-22T14:30:58.751Z,23.10
2019-05-22T14:33:31.734Z,23.10
2019-05-22T14:36:12.755Z,22.90
2019-05-22T14:38:45.753Z,22.80
2019-05-22T14:41:12.573Z,22.70
2019-05-22T14:43:46.030Z,22.50
2019-05-22T14:46:12.686Z,22.40
2019-05-22T14:48:39.644Z,22.30
2019-05-22T14:51:14.430Z,22.20
2019-05-22T14:53:47.485Z,22.10
2019-05-22T14:56:14.911Z,22.00
2019-05-22T14:58:48.748Z,21.90
2019-05-22T15:01:16.274Z,21.80
2019-05-22T15:03:43.703Z,21.70
2019-05-22T15:06:17.240Z,21.70
2019-05-22T15:08:43.780Z,21.60
2019-05-22T15:11:17.650Z,21.50
2019-05-22T15:13:51.097Z,21.50
2019-05-22T15:16:24.256Z,21.40
2019-05-22T15:18:50.979Z,21.30
2019-05-22T15:21:24.589Z,21.20
2019-05-22T15:23:51.567Z,21.20
2019-05-22T15:26:24.806Z,21.10
2019-05-22T15:28:51.521Z,21.10
2019-05-22T15:31:25.148Z,21.10
2019-05-22T15:33:58.642Z,21.10
2019-05-22T15:36:38.879Z,21.10
2019-05-22T15:39:15.321Z,21.10
2019-05-22T15:41:41.966Z,21.10
2019-05-22T15:44:09.479Z,21.10
2019-05-22T15:46:42.811Z,21.00
2019-05-22T15:49:15.872Z,21.00
2019-05-22T15:51:49.997Z,20.90
2019-05-22T15:54:25.164Z,20.90
2019-05-22T15:56:59.175Z,20.80
2019-05-22T15:59:34.402Z,20.80
2019-05-22T16:02:36.080Z,20.70
2019-05-22T16:05:10.056Z,20.70
2019-05-22T16:07:45.203Z,20.60
2019-05-22T16:10:19.274Z,20.50
2019-05-22T16:12:52.436Z,20.40
2019-05-22T16:15:21.083Z,20.30
2019-05-22T16:18:10.336Z,20.20
2019-05-22T16:20:25.644Z,20.10
2019-05-22T16:22:52.616Z,20.10
2019-05-22T16:25:27.699Z,20.00
2019-05-22T16:27:54.637Z,19.90
2019-05-22T16:30:28.781Z,19.90
2019-05-22T16:32:56.107Z,19.80
2019-05-22T16:35:30.173Z,19.70
2019-05-22T16:37:56.797Z,19.70
2019-05-22T16:40:31.775Z,19.70
2019-05-22T16:43:06.104Z,19.70
2019-05-22T16:45:40.318Z,19.60
2019-05-22T16:48:28.311Z,19.70
2019-05-22T16:50:45.334Z,19.60
2019-05-22T16:53:18.743Z,19.60
2019-05-22T16:55:51.800Z,19.60
2019-05-22T16:58:18.557Z,19.70
2019-05-22T17:00:51.915Z,19.60
2019-05-22T17:03:26.157Z,19.60
2019-05-22T17:06:06.911Z,19.60
2019-05-22T17:08:34.619Z,19.60
2019-05-22T17:11:15.154Z,19.60
2019-05-22T17:13:42.491Z,19.60
2019-05-22T17:16:09.507Z,19.50
2019-05-22T17:18:47.744Z,19.50
2019-05-22T17:21:11.894Z,19.50
2019-05-22T17:23:45.643Z,19.40
2019-05-22T17:26:12.389Z,19.40
2019-05-22T17:28:47.944Z,19.40
2019-05-22T17:31:14.785Z,19.40
2019-05-22T17:33:51.243Z,19.30
2019-05-22T17:36:18.539Z,19.30
2019-05-22T17:38:55.515Z,19.30
2019-05-22T17:41:25.348Z,19.30
2019-05-22T17:44:14.711Z,19.30
2019-05-22T17:46:48.093Z,19.20
2019-05-22T17:49:27.291Z,19.20
2019-05-22T17:52:00.414Z,19.10
2019-05-22T17:54:33.531Z,19.10
2019-05-22T17:57:01.514Z,19.00
2019-05-22T17:59:34.700Z,19.00
2019-05-22T18:02:01.983Z,18.90
2019-05-22T18:04:42.171Z,18.90
2019-05-22T18:07:16.027Z,18.90
2019-05-22T18:09:49.265Z,18.80
2019-05-22T18:12:28.435Z,18.80
2019-05-22T18:14:55.467Z,18.80
2019-05-22T18:17:22.899Z,18.70
2019-05-22T18:19:56.350Z,18.70
2019-05-22T18:22:22.996Z,18.70
2019-05-22T18:24:56.694Z,18.60
2019-05-22T18:27:25.438Z,18.60
2019-05-22T18:29:52.480Z,18.50
2019-05-22T18:32:26.151Z,18.50
2019-05-22T18:34:52.851Z,18.40
2019-05-22T18:37:26.168Z,18.40
2019-05-22T18:39:53.005Z,18.40
2019-05-22T18:42:26.450Z,18.40
2019-05-22T18:44:59.610Z,18.30
2019-05-22T18:47:26.594Z,18.30
2019-05-22T18:49:59.712Z,18.30
2019-05-22T18:52:39.805Z,18.20
2019-05-22T18:55:01.194Z,18.20
2019-05-22T18:57:27.843Z,18.20
2019-05-22T19:00:01.554Z,18.20
2019-05-22T19:02:29.695Z,18.10
2019-05-22T19:05:09.933Z,18.10
2019-05-22T19:07:43.021Z,18.10
2019-05-22T19:10:17.246Z,18.00
2019-05-22T19:12:44.192Z,18.00
2019-05-22T19:15:19.536Z,18.00
2019-05-22T19:17:46.273Z,18.00
2019-05-22T19:20:19.777Z,17.90
2019-05-22T19:23:00.221Z,17.90
2019-05-22T19:25:30.402Z,17.90
2019-05-22T19:27:57.047Z,17.80
2019-05-22T19:30:31.466Z,17.80
2019-05-22T19:32:58.335Z,17.80
2019-05-22T19:35:31.635Z,17.70
2019-05-22T19:37:58.883Z,17.70
2019-05-22T19:40:25.524Z,17.70
2019-05-22T19:42:58.709Z,17.60
2019-05-22T19:45:25.295Z,17.60
2019-05-22T19:48:03.262Z,17.50
2019-05-22T19:50:30.802Z,17.50
2019-05-22T19:53:15.726Z,17.40
2019-05-22T19:55:34.787Z,17.40
2019-05-22T19:58:01.693Z,17.40
2019-05-22T20:00:29.923Z,17.40
2019-05-22T20:03:02.825Z,17.30
2019-05-22T20:05:37.939Z,17.30
2019-05-22T20:08:18.452Z,17.30
2019-05-22T20:10:52.410Z,17.20
2019-05-22T20:13:21.444Z,17.20
2019-05-22T20:15:54.983Z,17.20
2019-05-22T20:18:28.219Z,17.10
2019-05-22T20:20:54.858Z,17.10
2019-05-22T20:23:35.974Z,17.10
2019-05-22T20:25:57.145Z,17.10
2019-05-22T20:28:24.783Z,17.00
2019-05-22T20:30:57.945Z,17.00
2019-05-22T20:33:26.979Z,17.00
2019-05-22T20:35:59.357Z,16.90
2019-05-22T20:38:26.016Z,16.90
2019-05-22T20:40:59.635Z,16.80
2019-05-22T20:43:34.826Z,16.80
2019-05-22T20:46:02.361Z,16.80
2019-05-22T20:48:36.212Z,16.70
2019-05-22T20:51:04.133Z,16.70
2019-05-22T20:53:32.187Z,16.70
2019-05-22T20:56:06.122Z,16.60
2019-05-22T20:58:33.362Z,16.60
2019-05-22T21:01:07.282Z,16.60
2019-05-22T21:03:41.172Z,16.50
2019-05-22T21:06:25.989Z,16.50
2019-05-22T21:09:06.289Z,16.50
2019-05-22T21:11:40.963Z,16.40
2019-05-22T21:14:14.587Z,16.40
2019-05-22T21:16:41.981Z,16.30
2019-05-22T21:19:17.551Z,16.30
2019-05-22T21:21:44.822Z,16.30
2019-05-22T21:24:14.731Z,16.30
2019-05-22T21:26:48.925Z,16.30
2019-05-22T21:29:22.448Z,16.20
2019-05-22T21:31:56.095Z,16.20
2019-05-22T21:34:23.532Z,16.20
2019-05-22T21:36:50.202Z,16.20
2019-05-22T21:39:25.346Z,16.10
2019-05-22T21:41:52.014Z,16.10
2019-05-22T21:44:25.480Z,16.10
2019-05-22T21:46:59.559Z,16.00
2019-05-22T21:49:28.024Z,16.00
2019-05-22T21:52:01.943Z,16.00
2019-05-22T21:54:28.580Z,15.90
2019-05-22T21:57:01.359Z,15.90
2019-05-22T21:59:28.500Z,15.90
2019-05-22T22:02:15.863Z,15.90
2019-05-22T22:04:42.914Z,15.80
2019-05-22T22:07:24.123Z,15.80
2019-05-22T22:09:52.147Z,15.70
2019-05-22T22:12:22.229Z,15.70
2019-05-22T22:14:55.532Z,15.70
2019-05-22T22:17:29.944Z,15.60
2019-05-22T22:20:03.878Z,15.60
2019-05-22T22:22:30.907Z,15.50
2019-05-22T22:24:58.359Z,15.50
2019-05-22T22:27:32.398Z,15.50
2019-05-22T22:29:59.643Z,15.50
2019-05-22T22:32:28.095Z,15.50
2019-05-22T22:35:01.968Z,15.40
2019-05-22T22:37:29.710Z,15.40
2019-05-22T22:39:56.457Z,15.40
2019-05-22T22:42:31.363Z,15.30
2019-05-22T22:45:05.635Z,15.30
2019-05-22T22:47:34.295Z,15.30
2019-05-22T22:50:02.133Z,15.30
2019-05-22T22:52:34.945Z,15.30
2019-05-22T22:55:03.486Z,15.20
2019-05-22T22:57:31.152Z,15.20
2019-05-22T23:00:04.503Z,15.20
2019-05-22T23:02:40.799Z,15.20
2019-05-22T23:05:10.235Z,15.20
2019-05-22T23:07:51.238Z,15.10
2019-05-22T23:10:25.190Z,15.10
2019-05-22T23:12:59.569Z,15.10
2019-05-22T23:15:27.138Z,15.10
2019-05-22T23:18:01.829Z,15.10
2019-05-22T23:20:28.531Z,15.10
2019-05-22T23:22:54.781Z,15.10
2019-05-22T23:25:30.281Z,15.10
2019-05-22T23:28:03.503Z,15.10
2019-05-22T23:30:30.949Z,15.10
2019-05-22T23:33:04.879Z,15.10
2019-05-22T23:35:31.456Z,15.10
2019-05-22T23:37:58.493Z,15.10
2019-05-22T23:40:39.475Z,15.10
2019-05-22T23:43:06.804Z,15.10
2019-05-22T23:45:34.949Z,15.00
2019-05-22T23:48:14.080Z,15.00
2019-05-22T23:50:41.262Z,15.00
2019-05-22T23:53:09.712Z,15.00
2019-05-22T23:55:43.219Z,15.00
2019-05-22T23:58:18.423Z,14.90
